Terminal Aerodrome Forecast
Issued by NWS Cleveland, OH

Home | Current Version | Previous Version | Text Only | Print | Product List | Glossary Off
Versions: 1 2 3 4 5 6 7 8 9 10 11 12 13 14

691
FTUS41 KCLE 200538
TAFMFD
TAF
KMFD 200538Z 2006/2106 24008KT P6SM SCT060 BKN120
     FM201600 26012G20KT P6SM SCT040
     FM202300 24006KT P6SM SCT120=

USA.gov is the U.S. government's official web portal to all federal, state and local government web resources and services.